sensor_id;sensor_type;location;lat;lon;timestamp;temperature;humidity
38436;DHT22;24220;48.168;14.024;2023-11-19T00:01:45;7.70;77.90
38436;DHT22;24220;48.168;14.024;2023-11-19T00:04:14;7.70;78.00
38436;DHT22;24220;48.168;14.024;2023-11-19T00:06:41;7.70;78.00
38436;DHT22;24220;48.168;14.024;2023-11-19T00:09:08;7.70;78.00
38436;DHT22;24220;48.168;14.024;2023-11-19T00:11:35;7.70;78.10
38436;DHT22;24220;48.168;14.024;2023-11-19T00:14:03;7.60;78.10
38436;DHT22;24220;48.168;14.024;2023-11-19T00:16:30;7.70;78.90
38436;DHT22;24220;48.168;14.024;2023-11-19T00:18:59;7.70;78.20
38436;DHT22;24220;48.168;14.024;2023-11-19T00:21:26;7.60;78.10
38436;DHT22;24220;48.168;14.024;2023-11-19T00:23:55;7.60;78.20
38436;DHT22;24220;48.168;14.024;2023-11-19T00:26:24;7.60;78.20
38436;DHT22;24220;48.168;14.024;2023-11-19T00:28:51;7.60;78.20
38436;DHT22;24220;48.168;14.024;2023-11-19T00:31:23;7.60;78.40
38436;DHT22;24220;48.168;14.024;2023-11-19T00:33:50;7.60;78.30
38436;DHT22;24220;48.168;14.024;2023-11-19T00:36:17;7.60;78.30
38436;DHT22;24220;48.168;14.024;2023-11-19T00:38:44;7.60;78.40
38436;DHT22;24220;48.168;14.024;2023-11-19T00:41:11;7.60;78.50
38436;DHT22;24220;48.168;14.024;2023-11-19T00:43:39;7.60;78.30
38436;DHT22;24220;48.168;14.024;2023-11-19T00:46:07;7.60;78.40
38436;DHT22;24220;48.168;14.024;2023-11-19T00:48:34;7.60;78.40
38436;DHT22;24220;48.168;14.024;2023-11-19T00:51:01;7.60;78.40
38436;DHT22;24220;48.168;14.024;2023-11-19T00:53:28;7.60;78.50
38436;DHT22;24220;48.168;14.024;2023-11-19T00:55:55;7.60;78.50
38436;DHT22;24220;48.168;14.024;2023-11-19T00:58:25;7.60;78.60
38436;DHT22;24220;48.168;14.024;2023-11-19T01:00:52;7.60;78.70
38436;DHT22;24220;48.168;14.024;2023-11-19T01:03:20;7.60;78.80
38436;DHT22;24220;48.168;14.024;2023-11-19T01:05:47;7.60;78.70
38436;DHT22;24220;48.168;14.024;2023-11-19T01:08:14;7.60;78.80
38436;DHT22;24220;48.168;14.024;2023-11-19T01:10:43;7.60;78.80
38436;DHT22;24220;48.168;14.024;2023-11-19T01:13:10;7.60;78.90
38436;DHT22;24220;48.168;14.024;2023-11-19T01:15:38;7.60;78.80
38436;DHT22;24220;48.168;14.024;2023-11-19T01:18:06;7.60;78.80
38436;DHT22;24220;48.168;14.024;2023-11-19T01:20:34;7.60;78.90
38436;DHT22;24220;48.168;14.024;2023-11-19T01:23:01;7.60;78.90
38436;DHT22;24220;48.168;14.024;2023-11-19T01:25:31;7.60;78.90
38436;DHT22;24220;48.168;14.024;2023-11-19T01:27:58;7.60;79.00
38436;DHT22;24220;48.168;14.024;2023-11-19T01:30:26;7.60;79.00
38436;DHT22;24220;48.168;14.024;2023-11-19T01:32:55;7.60;79.10
38436;DHT22;24220;48.168;14.024;2023-11-19T01:35:24;7.60;79.00
38436;DHT22;24220;48.168;14.024;2023-11-19T01:37:54;7.60;79.10
38436;DHT22;24220;48.168;14.024;2023-11-19T01:40:21;7.60;79.10
38436;DHT22;24220;48.168;14.024;2023-11-19T01:42:48;7.60;79.20
38436;DHT22;24220;48.168;14.024;2023-11-19T01:45:26;7.60;79.20
38436;DHT22;24220;48.168;14.024;2023-11-19T01:47:55;7.60;79.20
38436;DHT22;24220;48.168;14.024;2023-11-19T01:50:23;7.60;79.10
38436;DHT22;24220;48.168;14.024;2023-11-19T01:52:52;7.60;79.10
38436;DHT22;24220;48.168;14.024;2023-11-19T01:55:21;7.60;79.10
38436;DHT22;24220;48.168;14.024;2023-11-19T01:57:52;7.60;79.30
38436;DHT22;24220;48.168;14.024;2023-11-19T02:00:20;7.60;79.30
38436;DHT22;24220;48.168;14.024;2023-11-19T02:02:47;7.60;79.20
38436;DHT22;24220;48.168;14.024;2023-11-19T02:05:15;7.60;79.30
38436;DHT22;24220;48.168;14.024;2023-11-19T02:07:45;7.60;79.30
38436;DHT22;24220;48.168;14.024;2023-11-19T02:10:15;7.60;79.40
38436;DHT22;24220;48.168;14.024;2023-11-19T02:12:44;7.60;79.40
38436;DHT22;24220;48.168;14.024;2023-11-19T02:15:11;7.60;79.40
38436;DHT22;24220;48.168;14.024;2023-11-19T02:17:39;7.60;79.40
38436;DHT22;24220;48.168;14.024;2023-11-19T02:20:06;7.60;79.40
38436;DHT22;24220;48.168;14.024;2023-11-19T02:22:38;7.60;79.40
38436;DHT22;24220;48.168;14.024;2023-11-19T02:25:07;7.60;79.40
38436;DHT22;24220;48.168;14.024;2023-11-19T02:27:48;7.60;79.40
38436;DHT22;24220;48.168;14.024;2023-11-19T02:30:18;7.60;79.50
38436;DHT22;24220;48.168;14.024;2023-11-19T02:32:45;7.60;79.50
38436;DHT22;24220;48.168;14.024;2023-11-19T02:35:13;7.60;79.50
38436;DHT22;24220;48.168;14.024;2023-11-19T02:37:40;7.60;79.50
38436;DHT22;24220;48.168;14.024;2023-11-19T02:40:09;7.60;79.50
38436;DHT22;24220;48.168;14.024;2023-11-19T02:42:37;7.60;79.50
38436;DHT22;24220;48.168;14.024;2023-11-19T02:45:04;7.60;79.50
38436;DHT22;24220;48.168;14.024;2023-11-19T02:47:33;7.60;79.50
38436;DHT22;24220;48.168;14.024;2023-11-19T02:50:01;7.60;79.50
38436;DHT22;24220;48.168;14.024;2023-11-19T02:52:28;7.60;79.50
38436;DHT22;24220;48.168;14.024;2023-11-19T02:54:56;7.60;79.50
38436;DHT22;24220;48.168;14.024;2023-11-19T02:57:23;7.60;79.50
38436;DHT22;24220;48.168;14.024;2023-11-19T02:59:54;7.50;79.40
38436;DHT22;24220;48.168;14.024;2023-11-19T03:02:23;7.50;79.50
38436;DHT22;24220;48.168;14.024;2023-11-19T03:04:51;7.50;79.50
38436;DHT22;24220;48.168;14.024;2023-11-19T03:07:18;7.50;79.60
38436;DHT22;24220;48.168;14.024;2023-11-19T03:09:45;7.60;79.70
38436;DHT22;24220;48.168;14.024;2023-11-19T03:12:12;7.50;79.60
38436;DHT22;24220;48.168;14.024;2023-11-19T03:14:44;7.50;79.60
38436;DHT22;24220;48.168;14.024;2023-11-19T03:17:11;7.50;79.60
38436;DHT22;24220;48.168;14.024;2023-11-19T03:19:39;7.50;79.60
38436;DHT22;24220;48.168;14.024;2023-11-19T03:22:06;7.50;79.60
38436;DHT22;24220;48.168;14.024;2023-11-19T03:24:34;7.50;79.60
38436;DHT22;24220;48.168;14.024;2023-11-19T03:27:05;7.50;79.60
38436;DHT22;24220;48.168;14.024;2023-11-19T03:29:32;7.50;79.60
38436;DHT22;24220;48.168;14.024;2023-11-19T03:31:59;7.50;79.60
38436;DHT22;24220;48.168;14.024;2023-11-19T03:34:26;7.50;79.60
38436;DHT22;24220;48.168;14.024;2023-11-19T03:36:53;7.50;79.50
38436;DHT22;24220;48.168;14.024;2023-11-19T03:39:23;7.50;79.50
38436;DHT22;24220;48.168;14.024;2023-11-19T03:41:52;7.50;79.50
38436;DHT22;24220;48.168;14.024;2023-11-19T03:44:19;7.40;79.50
38436;DHT22;24220;48.168;14.024;2023-11-19T03:46:46;7.40;79.50
38436;DHT22;24220;48.168;14.024;2023-11-19T03:49:16;7.40;79.60
38436;DHT22;24220;48.168;14.024;2023-11-19T03:51:43;7.40;79.50
38436;DHT22;24220;48.168;14.024;2023-11-19T03:54:12;7.40;79.60
38436;DHT22;24220;48.168;14.024;2023-11-19T03:56:39;7.40;79.70
38436;DHT22;24220;48.168;14.024;2023-11-19T03:59:06;7.40;79.70
38436;DHT22;24220;48.168;14.024;2023-11-19T04:01:35;7.40;79.70
38436;DHT22;24220;48.168;14.024;2023-11-19T04:04:02;7.40;79.80
38436;DHT22;24220;48.168;14.024;2023-11-19T04:06:29;7.30;79.70
38436;DHT22;24220;48.168;14.024;2023-11-19T04:08:58;7.40;79.70
38436;DHT22;24220;48.168;14.024;2023-11-19T04:11:26;7.40;79.60
38436;DHT22;24220;48.168;14.024;2023-11-19T04:13:53;7.30;80.20
38436;DHT22;24220;48.168;14.024;2023-11-19T04:16:26;7.30;79.60
38436;DHT22;24220;48.168;14.024;2023-11-19T04:18:55;7.30;79.70
38436;DHT22;24220;48.168;14.024;2023-11-19T04:21:22;7.30;79.70
38436;DHT22;24220;48.168;14.024;2023-11-19T04:23:50;7.30;79.70
38436;DHT22;24220;48.168;14.024;2023-11-19T04:26:19;7.30;79.70
38436;DHT22;24220;48.168;14.024;2023-11-19T04:28:49;7.30;79.90
38436;DHT22;24220;48.168;14.024;2023-11-19T04:31:16;7.30;79.90
38436;DHT22;24220;48.168;14.024;2023-11-19T04:33:44;7.30;80.00
38436;DHT22;24220;48.168;14.024;2023-11-19T04:36:11;7.30;80.10
38436;DHT22;24220;48.168;14.024;2023-11-19T04:38:38;7.30;80.20
38436;DHT22;24220;48.168;14.024;2023-11-19T04:41:05;7.30;80.20
38436;DHT22;24220;48.168;14.024;2023-11-19T04:43:35;7.30;80.20
38436;DHT22;24220;48.168;14.024;2023-11-19T04:46:05;7.30;80.20
38436;DHT22;24220;48.168;14.024;2023-11-19T04:48:34;7.30;80.10
38436;DHT22;24220;48.168;14.024;2023-11-19T04:51:07;7.30;80.10
38436;DHT22;24220;48.168;14.024;2023-11-19T04:53:36;7.30;80.10
38436;DHT22;24220;48.168;14.024;2023-11-19T04:56:10;7.30;80.10
38436;DHT22;24220;48.168;14.024;2023-11-19T04:58:40;7.30;80.10
38436;DHT22;24220;48.168;14.024;2023-11-19T05:01:12;7.30;80.10
38436;DHT22;24220;48.168;14.024;2023-11-19T05:03:40;7.30;80.20
38436;DHT22;24220;48.168;14.024;2023-11-19T05:06:10;7.30;80.20
38436;DHT22;24220;48.168;14.024;2023-11-19T05:08:37;7.30;80.30
38436;DHT22;24220;48.168;14.024;2023-11-19T05:11:04;7.30;80.30
38436;DHT22;24220;48.168;14.024;2023-11-19T05:13:35;7.30;80.30
38436;DHT22;24220;48.168;14.024;2023-11-19T05:16:02;7.30;80.20
38436;DHT22;24220;48.168;14.024;2023-11-19T05:18:29;7.30;80.20
38436;DHT22;24220;48.168;14.024;2023-11-19T05:20:56;7.30;80.20
38436;DHT22;24220;48.168;14.024;2023-11-19T05:23:23;7.30;80.10
38436;DHT22;24220;48.168;14.024;2023-11-19T05:25:51;7.30;80.10
38436;DHT22;24220;48.168;14.024;2023-11-19T05:28:18;7.20;80.00
38436;DHT22;24220;48.168;14.024;2023-11-19T05:30:45;7.20;80.10
38436;DHT22;24220;48.168;14.024;2023-11-19T05:33:12;7.20;80.10
38436;DHT22;24220;48.168;14.024;2023-11-19T05:35:40;7.20;80.10
38436;DHT22;24220;48.168;14.024;2023-11-19T05:38:07;7.20;80.20
38436;DHT22;24220;48.168;14.024;2023-11-19T05:40:34;7.20;80.20
38436;DHT22;24220;48.168;14.024;2023-11-19T05:43:01;7.20;80.30
38436;DHT22;24220;48.168;14.024;2023-11-19T05:45:28;7.20;80.30
38436;DHT22;24220;48.168;14.024;2023-11-19T05:47:56;7.20;80.30
38436;DHT22;24220;48.168;14.024;2023-11-19T05:50:23;7.20;80.20
38436;DHT22;24220;48.168;14.024;2023-11-19T05:52:50;7.20;80.20
38436;DHT22;24220;48.168;14.024;2023-11-19T05:55:19;7.20;80.10
38436;DHT22;24220;48.168;14.024;2023-11-19T05:57:47;7.20;80.10
38436;DHT22;24220;48.168;14.024;2023-11-19T06:00:21;7.20;80.10
38436;DHT22;24220;48.168;14.024;2023-11-19T06:02:48;7.20;80.10
38436;DHT22;24220;48.168;14.024;2023-11-19T06:05:15;7.10;80.10
38436;DHT22;24220;48.168;14.024;2023-11-19T06:07:42;7.20;80.20
38436;DHT22;24220;48.168;14.024;2023-11-19T06:10:09;7.10;80.30
38436;DHT22;24220;48.168;14.024;2023-11-19T06:12:37;7.10;80.90
38436;DHT22;24220;48.168;14.024;2023-11-19T06:15:05;7.20;80.30
38436;DHT22;24220;48.168;14.024;2023-11-19T06:17:33;7.20;80.30
38436;DHT22;24220;48.168;14.024;2023-11-19T06:20:00;7.10;80.30
38436;DHT22;24220;48.168;14.024;2023-11-19T06:22:27;7.10;80.20
38436;DHT22;24220;48.168;14.024;2023-11-19T06:24:57;7.10;80.30
38436;DHT22;24220;48.168;14.024;2023-11-19T06:27:25;7.10;80.30
38436;DHT22;24220;48.168;14.024;2023-11-19T06:29:53;7.10;80.30
38436;DHT22;24220;48.168;14.024;2023-11-19T06:32:20;7.10;80.40
38436;DHT22;24220;48.168;14.024;2023-11-19T06:34:47;7.10;80.40
38436;DHT22;24220;48.168;14.024;2023-11-19T06:37:15;7.10;80.50
38436;DHT22;24220;48.168;14.024;2023-11-19T06:39:44;7.10;80.50
38436;DHT22;24220;48.168;14.024;2023-11-19T06:42:11;7.10;80.50
38436;DHT22;24220;48.168;14.024;2023-11-19T06:44:38;7.10;80.50
38436;DHT22;24220;48.168;14.024;2023-11-19T06:47:06;7.20;80.70
38436;DHT22;24220;48.168;14.024;2023-11-19T06:49:35;7.10;80.60
38436;DHT22;24220;48.168;14.024;2023-11-19T06:52:03;7.10;80.70
38436;DHT22;24220;48.168;14.024;2023-11-19T06:54:34;7.20;80.90
38436;DHT22;24220;48.168;14.024;2023-11-19T06:57:02;7.20;80.70
38436;DHT22;24220;48.168;14.024;2023-11-19T06:59:29;7.20;80.70
38436;DHT22;24220;48.168;14.024;2023-11-19T07:01:57;7.20;80.80
38436;DHT22;24220;48.168;14.024;2023-11-19T07:04:24;7.20;80.90
38436;DHT22;24220;48.168;14.024;2023-11-19T07:06:53;7.20;81.00
38436;DHT22;24220;48.168;14.024;2023-11-19T07:09:20;7.20;80.90
38436;DHT22;24220;48.168;14.024;2023-11-19T07:11:48;7.20;80.90
38436;DHT22;24220;48.168;14.024;2023-11-19T07:14:17;7.20;80.90
38436;DHT22;24220;48.168;14.024;2023-11-19T07:16:45;7.20;80.80
38436;DHT22;24220;48.168;14.024;2023-11-19T07:19:14;7.20;80.90
38436;DHT22;24220;48.168;14.024;2023-11-19T07:21:42;7.20;80.90
38436;DHT22;24220;48.168;14.024;2023-11-19T07:24:11;7.20;81.00
38436;DHT22;24220;48.168;14.024;2023-11-19T07:26:41;7.20;81.00
38436;DHT22;24220;48.168;14.024;2023-11-19T07:29:09;7.20;81.10
38436;DHT22;24220;48.168;14.024;2023-11-19T07:31:39;7.30;81.20
38436;DHT22;24220;48.168;14.024;2023-11-19T07:34:06;7.30;81.30
38436;DHT22;24220;48.168;14.024;2023-11-19T07:36:33;7.30;81.30
38436;DHT22;24220;48.168;14.024;2023-11-19T07:39:03;7.30;81.30
38436;DHT22;24220;48.168;14.024;2023-11-19T07:41:32;7.30;81.50
38436;DHT22;24220;48.168;14.024;2023-11-19T07:44:00;7.30;81.50
38436;DHT22;24220;48.168;14.024;2023-11-19T07:46:27;7.30;81.00
38436;DHT22;24220;48.168;14.024;2023-11-19T07:48:54;7.30;81.60
38436;DHT22;24220;48.168;14.024;2023-11-19T07:51:21;7.30;81.60
38436;DHT22;24220;48.168;14.024;2023-11-19T07:53:48;7.40;81.70
38436;DHT22;24220;48.168;14.024;2023-11-19T07:56:18;7.40;81.70
38436;DHT22;24220;48.168;14.024;2023-11-19T07:58:45;7.40;81.70
38436;DHT22;24220;48.168;14.024;2023-11-19T08:01:13;7.40;81.70
38436;DHT22;24220;48.168;14.024;2023-11-19T08:03:42;7.40;81.70
38436;DHT22;24220;48.168;14.024;2023-11-19T08:06:25;7.40;81.80
38436;DHT22;24220;48.168;14.024;2023-11-19T08:08:52;7.40;81.80
38436;DHT22;24220;48.168;14.024;2023-11-19T08:11:19;7.50;81.90
38436;DHT22;24220;48.168;14.024;2023-11-19T08:13:47;7.50;81.90
38436;DHT22;24220;48.168;14.024;2023-11-19T08:16:14;7.50;81.90
38436;DHT22;24220;48.168;14.024;2023-11-19T08:18:45;7.50;81.90
38436;DHT22;24220;48.168;14.024;2023-11-19T08:21:12;7.50;81.80
38436;DHT22;24220;48.168;14.024;2023-11-19T08:23:41;7.50;81.70
38436;DHT22;24220;48.168;14.024;2023-11-19T08:26:09;7.50;82.30
38436;DHT22;24220;48.168;14.024;2023-11-19T08:28:37;7.50;81.80
38436;DHT22;24220;48.168;14.024;2023-11-19T08:31:06;7.50;81.80
38436;DHT22;24220;48.168;14.024;2023-11-19T08:33:33;7.50;81.90
38436;DHT22;24220;48.168;14.024;2023-11-19T08:36:00;7.50;81.90
38436;DHT22;24220;48.168;14.024;2023-11-19T08:38:28;7.50;81.90
38436;DHT22;24220;48.168;14.024;2023-11-19T08:40:58;7.50;81.90
38436;DHT22;24220;48.168;14.024;2023-11-19T08:43:27;7.50;81.80
38436;DHT22;24220;48.168;14.024;2023-11-19T08:45:54;7.50;81.80
38436;DHT22;24220;48.168;14.024;2023-11-19T08:48:21;7.50;81.80
38436;DHT22;24220;48.168;14.024;2023-11-19T08:50:52;7.50;81.80
38436;DHT22;24220;48.168;14.024;2023-11-19T08:53:19;7.60;81.80
38436;DHT22;24220;48.168;14.024;2023-11-19T08:55:47;7.50;81.70
38436;DHT22;24220;48.168;14.024;2023-11-19T08:58:14;7.50;81.50
38436;DHT22;24220;48.168;14.024;2023-11-19T09:00:44;7.50;81.60
38436;DHT22;24220;48.168;14.024;2023-11-19T09:03:11;7.50;81.60
38436;DHT22;24220;48.168;14.024;2023-11-19T09:05:38;7.50;81.70
38436;DHT22;24220;48.168;14.024;2023-11-19T09:08:06;7.50;81.90
38436;DHT22;24220;48.168;14.024;2023-11-19T09:10:33;7.50;81.90
38436;DHT22;24220;48.168;14.024;2023-11-19T09:13:00;7.50;82.00
38436;DHT22;24220;48.168;14.024;2023-11-19T09:15:27;7.50;82.00
38436;DHT22;24220;48.168;14.024;2023-11-19T09:17:54;7.50;82.10
38436;DHT22;24220;48.168;14.024;2023-11-19T09:20:22;7.50;82.10
38436;DHT22;24220;48.168;14.024;2023-11-19T09:22:49;7.50;82.00
38436;DHT22;24220;48.168;14.024;2023-11-19T09:25:16;7.60;82.00
38436;DHT22;24220;48.168;14.024;2023-11-19T09:27:46;7.50;82.00
38436;DHT22;24220;48.168;14.024;2023-11-19T09:30:13;7.60;82.20
38436;DHT22;24220;48.168;14.024;2023-11-19T09:32:40;7.50;82.30
38436;DHT22;24220;48.168;14.024;2023-11-19T09:35:08;7.60;82.30
38436;DHT22;24220;48.168;14.024;2023-11-19T09:37:35;7.60;82.30
38436;DHT22;24220;48.168;14.024;2023-11-19T09:40:03;7.60;82.40
38436;DHT22;24220;48.168;14.024;2023-11-19T09:42:31;7.60;82.40
38436;DHT22;24220;48.168;14.024;2023-11-19T09:44:59;7.70;82.50
38436;DHT22;24220;48.168;14.024;2023-11-19T09:47:26;7.70;82.50
38436;DHT22;24220;48.168;14.024;2023-11-19T09:49:54;7.70;82.50
38436;DHT22;24220;48.168;14.024;2023-11-19T09:52:25;7.70;82.50
38436;DHT22;24220;48.168;14.024;2023-11-19T09:54:52;7.70;82.40
38436;DHT22;24220;48.168;14.024;2023-11-19T09:57:19;7.70;82.30
38436;DHT22;24220;48.168;14.024;2023-11-19T09:59:46;7.70;82.30
38436;DHT22;24220;48.168;14.024;2023-11-19T10:02:14;7.70;82.30
38436;DHT22;24220;48.168;14.024;2023-11-19T10:04:42;7.70;82.40
38436;DHT22;24220;48.168;14.024;2023-11-19T10:07:10;7.70;82.30
38436;DHT22;24220;48.168;14.024;2023-11-19T10:09:37;7.70;82.40
38436;DHT22;24220;48.168;14.024;2023-11-19T10:12:05;7.70;82.40
38436;DHT22;24220;48.168;14.024;2023-11-19T10:14:32;7.70;82.50
38436;DHT22;24220;48.168;14.024;2023-11-19T10:17:03;7.70;82.50
38436;DHT22;24220;48.168;14.024;2023-11-19T10:19:31;7.70;82.60
38436;DHT22;24220;48.168;14.024;2023-11-19T10:22:02;7.70;82.50
38436;DHT22;24220;48.168;14.024;2023-11-19T10:24:33;7.70;82.60
38436;DHT22;24220;48.168;14.024;2023-11-19T10:27:04;7.70;82.70
38436;DHT22;24220;48.168;14.024;2023-11-19T10:29:36;7.70;82.70
38436;DHT22;24220;48.168;14.024;2023-11-19T10:32:04;7.80;82.90
38436;DHT22;24220;48.168;14.024;2023-11-19T10:34:51;7.80;83.00
38436;DHT22;24220;48.168;14.024;2023-11-19T10:37:28;7.80;83.00
38436;DHT22;24220;48.168;14.024;2023-11-19T10:40:00;7.80;82.90
38436;DHT22;24220;48.168;14.024;2023-11-19T10:42:27;7.80;82.90
38436;DHT22;24220;48.168;14.024;2023-11-19T10:44:54;7.80;82.90
38436;DHT22;24220;48.168;14.024;2023-11-19T10:47:22;7.80;82.90
38436;DHT22;24220;48.168;14.024;2023-11-19T10:49:52;7.80;83.00
38436;DHT22;24220;48.168;14.024;2023-11-19T10:52:19;7.90;83.00
38436;DHT22;24220;48.168;14.024;2023-11-19T10:54:49;7.90;83.00
38436;DHT22;24220;48.168;14.024;2023-11-19T10:57:22;7.90;83.10
38436;DHT22;24220;48.168;14.024;2023-11-19T10:59:54;7.90;83.10
38436;DHT22;24220;48.168;14.024;2023-11-19T11:02:23;7.90;83.10
38436;DHT22;24220;48.168;14.024;2023-11-19T11:04:51;7.90;83.20
38436;DHT22;24220;48.168;14.024;2023-11-19T11:07:20;7.90;83.10
38436;DHT22;24220;48.168;14.024;2023-11-19T11:09:53;8.00;83.30
38436;DHT22;24220;48.168;14.024;2023-11-19T11:12:21;8.00;83.20
38436;DHT22;24220;48.168;14.024;2023-11-19T11:14:49;8.00;83.10
38436;DHT22;24220;48.168;14.024;2023-11-19T11:17:19;8.00;83.10
38436;DHT22;24220;48.168;14.024;2023-11-19T11:19:47;8.00;83.10
38436;DHT22;24220;48.168;14.024;2023-11-19T11:22:14;8.00;82.90
38436;DHT22;24220;48.168;14.024;2023-11-19T11:25:05;8.00;83.00
38436;DHT22;24220;48.168;14.024;2023-11-19T11:27:52;8.00;83.10
38436;DHT22;24220;48.168;14.024;2023-11-19T11:30:45;8.00;83.20
38436;DHT22;24220;48.168;14.024;2023-11-19T11:33:17;8.00;83.30
38436;DHT22;24220;48.168;14.024;2023-11-19T11:35:58;8.00;83.30
38436;DHT22;24220;48.168;14.024;2023-11-19T11:38:33;8.00;83.20
38436;DHT22;24220;48.168;14.024;2023-11-19T11:44:04;8.10;83.40
38436;DHT22;24220;48.168;14.024;2023-11-19T12:02:08;8.20;83.80
38436;DHT22;24220;48.168;14.024;2023-11-19T12:04:35;8.20;83.80
38436;DHT22;24220;48.168;14.024;2023-11-19T12:07:08;8.30;83.90
38436;DHT22;24220;48.168;14.024;2023-11-19T12:09:42;8.30;83.90
38436;DHT22;24220;48.168;14.024;2023-11-19T12:12:23;8.30;84.00
38436;DHT22;24220;48.168;14.024;2023-11-19T12:15:00;8.40;84.10
38436;DHT22;24220;48.168;14.024;2023-11-19T12:20:04;8.40;84.10
38436;DHT22;24220;48.168;14.024;2023-11-19T12:22:33;8.40;84.10
38436;DHT22;24220;48.168;14.024;2023-11-19T12:25:00;8.40;84.00
38436;DHT22;24220;48.168;14.024;2023-11-19T12:27:28;8.50;84.20
38436;DHT22;24220;48.168;14.024;2023-11-19T12:29:58;8.50;84.20
38436;DHT22;24220;48.168;14.024;2023-11-19T12:32:25;8.50;84.00
38436;DHT22;24220;48.168;14.024;2023-11-19T12:34:52;8.50;83.90
38436;DHT22;24220;48.168;14.024;2023-11-19T12:37:22;8.50;83.80
38436;DHT22;24220;48.168;14.024;2023-11-19T12:39:49;8.60;83.90
38436;DHT22;24220;48.168;14.024;2023-11-19T12:42:16;8.60;84.00
38436;DHT22;24220;48.168;14.024;2023-11-19T12:44:55;8.60;84.10
38436;DHT22;24220;48.168;14.024;2023-11-19T12:47:23;8.60;84.20
38436;DHT22;24220;48.168;14.024;2023-11-19T12:49:59;8.60;84.20
38436;DHT22;24220;48.168;14.024;2023-11-19T12:52:26;8.60;84.20
38436;DHT22;24220;48.168;14.024;2023-11-19T12:54:54;8.60;84.10
38436;DHT22;24220;48.168;14.024;2023-11-19T12:57:21;8.70;84.30
38436;DHT22;24220;48.168;14.024;2023-11-19T13:00:04;8.70;84.30
38436;DHT22;24220;48.168;14.024;2023-11-19T13:02:48;8.70;84.40
38436;DHT22;24220;48.168;14.024;2023-11-19T13:05:23;8.80;84.40
38436;DHT22;24220;48.168;14.024;2023-11-19T13:07:50;8.80;84.40
38436;DHT22;24220;48.168;14.024;2023-11-19T13:10:17;8.70;84.40
38436;DHT22;24220;48.168;14.024;2023-11-19T13:12:59;8.80;84.40
38436;DHT22;24220;48.168;14.024;2023-11-19T13:15:26;8.80;84.40
38436;DHT22;24220;48.168;14.024;2023-11-19T13:17:56;8.80;84.40
38436;DHT22;24220;48.168;14.024;2023-11-19T13:20:23;8.80;84.50
38436;DHT22;24220;48.168;14.024;2023-11-19T13:23:00;8.80;84.50
38436;DHT22;24220;48.168;14.024;2023-11-19T13:25:28;8.90;84.60
38436;DHT22;24220;48.168;14.024;2023-11-19T13:27:59;8.90;84.60
38436;DHT22;24220;48.168;14.024;2023-11-19T13:30:26;8.90;84.60
38436;DHT22;24220;48.168;14.024;2023-11-19T13:32:54;8.90;84.70
38436;DHT22;24220;48.168;14.024;2023-11-19T13:35:22;8.90;84.70
38436;DHT22;24220;48.168;14.024;2023-11-19T13:37:50;8.90;84.70
38436;DHT22;24220;48.168;14.024;2023-11-19T13:40:19;8.90;84.70
38436;DHT22;24220;48.168;14.024;2023-11-19T13:42:46;9.00;84.80
38436;DHT22;24220;48.168;14.024;2023-11-19T13:45:14;9.00;84.80
38436;DHT22;24220;48.168;14.024;2023-11-19T13:47:45;9.00;84.80
38436;DHT22;24220;48.168;14.024;2023-11-19T13:50:14;9.00;84.90
38436;DHT22;24220;48.168;14.024;2023-11-19T13:52:43;9.00;84.90
38436;DHT22;24220;48.168;14.024;2023-11-19T13:55:12;9.10;84.90
38436;DHT22;24220;48.168;14.024;2023-11-19T13:57:39;9.10;84.90
38436;DHT22;24220;48.168;14.024;2023-11-19T14:00:10;9.10;84.90
38436;DHT22;24220;48.168;14.024;2023-11-19T14:02:41;9.10;84.80
38436;DHT22;24220;48.168;14.024;2023-11-19T14:05:09;9.10;84.90
38436;DHT22;24220;48.168;14.024;2023-11-19T14:07:37;9.20;85.00
38436;DHT22;24220;48.168;14.024;2023-11-19T14:10:05;9.10;85.00
38436;DHT22;24220;48.168;14.024;2023-11-19T14:12:39;9.20;85.00
38436;DHT22;24220;48.168;14.024;2023-11-19T14:15:07;9.20;85.00
38436;DHT22;24220;48.168;14.024;2023-11-19T14:17:35;9.20;85.60
38436;DHT22;24220;48.168;14.024;2023-11-19T14:20:02;9.20;85.00
38436;DHT22;24220;48.168;14.024;2023-11-19T14:22:40;9.20;85.00
38436;DHT22;24220;48.168;14.024;2023-11-19T14:25:07;9.20;85.60
38436;DHT22;24220;48.168;14.024;2023-11-19T14:27:40;9.20;85.00
38436;DHT22;24220;48.168;14.024;2023-11-19T14:30:10;9.20;85.10
38436;DHT22;24220;48.168;14.024;2023-11-19T14:32:38;9.30;85.20
38436;DHT22;24220;48.168;14.024;2023-11-19T14:35:06;9.20;85.10
38436;DHT22;24220;48.168;14.024;2023-11-19T14:37:34;9.30;85.20
38436;DHT22;24220;48.168;14.024;2023-11-19T14:40:01;9.30;85.20
38436;DHT22;24220;48.168;14.024;2023-11-19T14:42:35;9.30;85.20
38436;DHT22;24220;48.168;14.024;2023-11-19T14:45:04;9.30;85.20
38436;DHT22;24220;48.168;14.024;2023-11-19T14:47:32;9.30;85.20
38436;DHT22;24220;48.168;14.024;2023-11-19T14:49:59;9.30;85.20
38436;DHT22;24220;48.168;14.024;2023-11-19T14:52:26;9.30;85.80
38436;DHT22;24220;48.168;14.024;2023-11-19T14:54:54;9.40;85.20
38436;DHT22;24220;48.168;14.024;2023-11-19T14:57:22;9.30;85.20
38436;DHT22;24220;48.168;14.024;2023-11-19T14:59:49;9.40;85.20
38436;DHT22;24220;48.168;14.024;2023-11-19T15:02:18;9.40;85.20
38436;DHT22;24220;48.168;14.024;2023-11-19T15:04:45;9.40;85.20
38436;DHT22;24220;48.168;14.024;2023-11-19T15:07:13;9.30;85.10
38436;DHT22;24220;48.168;14.024;2023-11-19T15:09:40;9.40;85.20
38436;DHT22;24220;48.168;14.024;2023-11-19T15:12:10;9.30;85.10
38436;DHT22;24220;48.168;14.024;2023-11-19T15:14:38;9.40;85.10
38436;DHT22;24220;48.168;14.024;2023-11-19T15:17:05;9.40;85.10
38436;DHT22;24220;48.168;14.024;2023-11-19T15:19:34;9.40;85.10
38436;DHT22;24220;48.168;14.024;2023-11-19T15:22:01;9.40;85.10
38436;DHT22;24220;48.168;14.024;2023-11-19T15:24:31;9.40;85.10
38436;DHT22;24220;48.168;14.024;2023-11-19T15:26:59;9.40;85.00
38436;DHT22;24220;48.168;14.024;2023-11-19T15:29:29;9.40;85.00
38436;DHT22;24220;48.168;14.024;2023-11-19T15:31:57;9.30;85.00
38436;DHT22;24220;48.168;14.024;2023-11-19T15:34:24;9.30;85.00
38436;DHT22;24220;48.168;14.024;2023-11-19T15:36:52;9.40;85.00
38436;DHT22;24220;48.168;14.024;2023-11-19T15:39:21;9.40;85.70
38436;DHT22;24220;48.168;14.024;2023-11-19T15:41:48;9.40;85.10
38436;DHT22;24220;48.168;14.024;2023-11-19T15:44:15;9.30;85.00
38436;DHT22;24220;48.168;14.024;2023-11-19T15:46:43;9.40;85.10
38436;DHT22;24220;48.168;14.024;2023-11-19T15:49:12;9.40;85.20
38436;DHT22;24220;48.168;14.024;2023-11-19T15:51:39;9.30;85.10
38436;DHT22;24220;48.168;14.024;2023-11-19T15:54:06;9.40;85.20
38436;DHT22;24220;48.168;14.024;2023-11-19T15:56:34;9.40;85.30
38436;DHT22;24220;48.168;14.024;2023-11-19T15:59:01;9.40;85.30
38436;DHT22;24220;48.168;14.024;2023-11-19T16:01:29;9.40;85.30